Time;durP1;ratioP1;P1;durP2;ratioP2;P2;SDS_P1;SDS_P2;PMS_P1;PMS_P2;Temp;Humidity;BMP_temperature;BMP_pressure;BME280_temperature;BME280_humidity;BME280_pressure;Samples;Min_cycle;Max_cycle;Signal;HPM_P1;HPM_P2
2022/09/26 00:01:15;;;;;;;18.63;9.10;;;;;;;13.69;nan;95195.47;5049467;28;20033;-77
2022/09/26 00:03:43;;;;;;;19.17;9.25;;;;;;;12.97;nan;95149.66;5048007;28;20041;-77
2022/09/26 00:06:09;;;;;;;16.80;8.50;;;;;;;13.36;nan;95202.63;5049156;28;20116;-77
2022/09/26 00:08:35;;;;;;;17.25;8.13;;;;;;;13.54;nan;95219.69;5048340;28;20533;-77
2022/09/26 00:11:04;;;;;;;13.82;8.35;;;;;;;13.31;nan;95207.25;5046797;28;20089;-78
2022/09/26 00:13:31;;;;;;;15.38;8.60;;;;;;;13.10;nan;95222.72;5047817;28;20028;-78
2022/09/26 00:15:57;;;;;;;17.55;8.38;;;;;;;13.23;nan;95215.91;5048723;28;20447;-76
2022/09/26 00:18:23;;;;;;;14.38;8.00;;;;;;;13.07;nan;95207.31;5045555;28;20035;-77
2022/09/26 00:20:49;;;;;;;14.85;8.60;;;;;;;13.30;nan;95209.13;5046977;28;20123;-77
2022/09/26 00:23:15;;;;;;;18.50;9.38;;;;;;;12.69;nan;95118.69;5047569;28;20128;-76
2022/09/26 00:25:48;;;;;;;14.05;8.60;;;;;;;12.89;nan;95152.97;5047193;28;20039;-77
2022/09/26 00:28:14;;;;;;;18.25;9.20;;;;;;;13.08;nan;95166.28;5047330;28;20028;-77
2022/09/26 00:30:40;;;;;;;18.95;8.50;;;;;;;12.96;nan;95150.78;5047105;28;20037;-77
2022/09/26 00:33:06;;;;;;;19.45;9.15;;;;;;;13.43;nan;95211.06;5046468;28;20044;-77
2022/09/26 00:35:31;;;;;;;17.23;8.40;;;;;;;13.27;nan;95185.75;5049201;28;20029;-77
2022/09/26 00:37:57;;;;;;;17.50;9.00;;;;;;;12.56;nan;95122.84;5049743;28;20538;-77
2022/09/26 00:40:26;;;;;;;14.25;8.88;;;;;;;13.04;nan;95150.13;5047834;28;20040;-77
2022/09/26 00:42:53;;;;;;;15.00;7.95;;;;;;;13.38;nan;95200.47;5046973;28;20049;-77
2022/09/26 00:45:18;;;;;;;14.57;8.40;;;;;;;13.36;nan;95199.97;5047811;28;20534;-77
2022/09/26 00:47:49;;;;;;;12.98;8.00;;;;;;;13.13;nan;95155.59;5047776;28;20040;-77
2022/09/26 00:50:29;;;;;;;16.90;7.07;;;;;;;13.14;nan;95173.94;5048806;28;20050;-77
2022/09/26 00:53:00;;;;;;;14.13;7.50;;;;;;;13.40;nan;95187.69;5047803;28;20036;-77
2022/09/26 00:55:33;;;;;;;12.65;7.30;;;;;;;13.10;nan;95153.50;5047078;28;20033;-77
2022/09/26 00:58:03;;;;;;;12.30;6.80;;;;;;;13.49;nan;95198.47;5047919;28;20055;-77
2022/09/26 01:00:29;;;;;;;10.20;6.70;;;;;;;13.57;nan;95202.34;5047661;28;20479;-77
2022/09/26 01:02:56;;;;;;;15.93;7.38;;;;;;;13.12;nan;95124.72;5046625;28;20047;-77
2022/09/26 01:05:23;;;;;;;12.32;7.00;;;;;;;13.46;nan;95170.53;5047259;28;20029;-77
2022/09/26 01:07:51;;;;;;;14.57;7.53;;;;;;;13.50;nan;95205.38;5047616;28;20025;-77
2022/09/26 01:10:17;;;;;;;12.45;7.07;;;;;;;13.12;nan;95135.38;5049081;28;20029;-77
2022/09/26 01:12:43;;;;;;;14.45;6.97;;;;;;;13.67;nan;95194.16;5047677;28;20104;-77
2022/09/26 01:15:09;;;;;;;11.77;7.22;;;;;;;13.73;nan;95190.34;5048506;28;20819;-77
2022/09/26 01:17:40;;;;;;;11.98;6.45;;;;;;;13.56;nan;95166.91;5048779;28;20071;-77
2022/09/26 01:20:19;;;;;;;10.32;6.82;;;;;;;13.79;nan;95187.31;5052450;28;20025;-77
2022/09/26 01:23:17;;;;;;;13.68;7.28;;;;;;;13.84;nan;95187.19;5050868;28;20044;-77
2022/09/26 01:25:46;;;;;;;14.52;7.65;;;;;;;13.88;nan;95187.41;5051321;28;20033;-77
2022/09/26 01:28:30;;;;;;;18.05;7.68;;;;;;;13.84;nan;95187.19;5053330;28;20048;-77
2022/09/26 01:31:13;;;;;;;15.77;6.97;;;;;;;13.88;nan;95184.75;5052480;28;20033;-77
2022/09/26 01:33:54;;;;;;;12.18;7.57;;;;;;;13.39;nan;95116.84;5051560;28;20032;-78
2022/09/26 01:37:06;;;;;;;15.30;7.55;;;;;;;13.83;nan;95184.81;5050699;28;20090;-78
2022/09/26 01:40:01;;;;;;;14.07;9.20;;;;;;;13.86;nan;95187.72;5034459;28;20041;-77
2022/09/26 01:43:25;;;;;;;12.10;7.88;;;;;;;13.88;nan;95188.19;5052663;28;20101;-78
2022/09/26 01:46:00;;;;;;;15.57;7.90;;;;;;;13.53;nan;95133.63;5006304;28;20041;-76
2022/09/26 01:48:33;;;;;;;19.23;7.75;;;;;;;13.51;nan;95119.00;5052933;28;20035;-76
2022/09/26 01:51:18;;;;;;;15.63;7.57;;;;;;;13.97;nan;95182.97;5052618;28;20037;-76
2022/09/26 01:54:10;;;;;;;17.52;8.13;;;;;;;13.39;nan;95097.41;5052715;28;20029;-76
2022/09/26 01:56:38;;;;;;;19.55;8.45;;;;;;;13.77;nan;95138.81;5048286;28;20071;-78
2022/09/26 01:59:10;;;;;;;15.10;7.93;;;;;;;13.41;nan;95080.03;5052412;28;20028;-79
2022/09/26 02:01:39;;;;;;;15.82;7.72;;;;;;;13.83;nan;95140.31;5050845;28;20102;-78
2022/09/26 02:04:21;;;;;;;14.70;8.43;;;;;;;13.89;nan;95152.44;5051718;28;20506;-79
2022/09/26 02:06:56;;;;;;;17.45;8.50;;;;;;;14.04;nan;95164.72;5052023;28;20042;-79
2022/09/26 02:09:41;;;;;;;15.38;8.00;;;;;;;14.04;nan;95158.59;5050874;28;20040;-79
2022/09/26 02:12:10;;;;;;;14.60;8.10;;;;;;;14.06;nan;95159.09;5051712;28;20099;-79
2022/09/26 02:14:40;;;;;;;12.48;7.95;;;;;;;14.03;nan;95165.81;5049093;28;20525;-79
2022/09/26 02:17:13;;;;;;;13.90;7.25;;;;;;;13.93;nan;95141.22;5050422;28;20041;-78
2022/09/26 02:19:57;;;;;;;18.35;8.98;;;;;;;13.53;nan;95074.22;5063745;28;20060;-79
2022/09/26 02:22:28;;;;;;;11.88;7.70;;;;;;;13.50;nan;95061.50;5039177;28;20061;-78
2022/09/26 02:24:53;;;;;;;13.40;7.75;;;;;;;13.85;nan;95114.16;5049359;28;20102;-78
2022/09/26 02:27:20;;;;;;;12.38;7.43;;;;;;;14.04;nan;95132.72;5051610;28;20033;-79
2022/09/26 02:29:45;;;;;;;14.43;7.93;;;;;;;13.81;nan;95091.03;5050280;28;20063;-79
2022/09/26 02:32:16;;;;;;;13.00;8.00;;;;;;;14.05;nan;95150.28;5050189;28;20487;-79
2022/09/26 02:34:45;;;;;;;17.30;7.38;;;;;;;13.97;nan;95120.84;5051323;28;20116;-79
2022/09/26 02:37:12;;;;;;;16.02;7.97;;;;;;;12.54;nan;94876.81;5049951;28;20407;-79
2022/09/26 02:39:39;;;;;;;13.48;7.10;;;;;;;13.41;nan;95005.47;5051516;28;20117;-79
2022/09/26 02:42:08;;;;;;;14.07;7.72;;;;;;;14.20;nan;95122.53;5050065;28;20048;-79
2022/09/26 02:44:51;;;;;;;12.68;7.57;;;;;;;14.22;nan;95131.84;5051605;28;20373;-79
2022/09/26 02:47:41;;;;;;;13.45;7.88;;;;;;;13.62;nan;95071.69;5050812;28;20052;-79
2022/09/26 02:50:23;;;;;;;17.05;7.82;;;;;;;14.19;nan;95132.41;5050089;28;20039;-80
2022/09/26 02:53:33;;;;;;;17.02;7.93;;;;;;;14.25;nan;95131.25;5049850;28;20041;-80
2022/09/26 02:56:14;;;;;;;14.40;7.72;;;;;;;14.36;nan;95131.03;5048519;28;20122;-79
2022/09/26 02:58:54;;;;;;;12.35;8.07;;;;;;;14.38;nan;95136.88;5051339;28;20047;-79
2022/09/26 03:01:59;;;;;;;12.48;7.18;;;;;;;14.41;nan;95131.78;5049684;28;20133;-79
2022/09/26 03:04:27;;;;;;;11.65;7.47;;;;;;;14.45;nan;95118.59;5049520;28;20036;-80
2022/09/26 03:06:57;;;;;;;12.25;7.65;;;;;;;14.37;nan;95120.06;5050341;28;20091;-79
2022/09/26 03:09:24;;;;;;;10.95;6.55;;;;;;;14.37;nan;95124.59;5051459;28;20061;-79
2022/09/26 03:11:52;;;;;;;15.13;7.63;;;;;;;14.13;nan;95079.47;5050832;28;20090;-79
2022/09/26 03:14:19;;;;;;;13.77;6.55;;;;;;;14.25;nan;95093.13;5049254;28;20502;-79
2022/09/26 03:16:46;;;;;;;9.60;6.30;;;;;;;13.95;nan;95045.75;5049843;28;20116;-79
2022/09/26 03:19:30;;;;;;;10.48;6.57;;;;;;;14.32;nan;95112.19;5048483;28;20075;-78
2022/09/26 03:21:57;;;;;;;9.00;5.80;;;;;;;13.97;nan;95076.31;5049096;28;20033;-78
2022/09/26 03:24:25;;;;;;;12.45;6.22;;;;;;;14.26;nan;95119.50;5048903;28;20090;-78
2022/09/26 03:26:51;;;;;;;9.38;5.78;;;;;;;14.22;nan;95110.50;5048258;28;20064;-78
2022/09/26 03:29:18;;;;;;;9.60;5.97;;;;;;;14.24;nan;95119.00;5050253;28;20029;-78
2022/09/26 03:31:45;;;;;;;9.85;6.45;;;;;;;13.60;nan;95024.00;5048655;28;20458;-79
2022/09/26 03:34:11;;;;;;;14.52;7.18;;;;;;;13.89;nan;95050.34;5046056;28;20047;-78
2022/09/26 03:36:36;;;;;;;11.20;6.28;;;;;;;13.71;nan;95022.75;5050535;28;20033;-78
2022/09/26 03:39:02;;;;;;;14.77;7.38;;;;;;;13.73;nan;95030.44;5049803;28;20102;-78
2022/09/26 03:41:27;;;;;;;12.88;6.22;;;;;;;14.01;nan;95082.66;5048203;28;20430;-79
2022/09/26 03:43:55;;;;;;;12.82;6.28;;;;;;;13.52;nan;94990.84;5050397;28;20462;-79
2022/09/26 03:46:21;;;;;;;12.20;6.07;;;;;;;13.71;nan;95021.94;5049148;28;20082;-79
2022/09/26 03:48:47;;;;;;;11.85;6.57;;;;;;;14.03;nan;95091.16;5047964;28;20499;-79
2022/09/26 03:51:13;;;;;;;12.35;7.20;;;;;;;13.80;nan;95084.13;5048671;28;20028;-79
2022/09/26 03:53:41;;;;;;;9.68;6.75;;;;;;;13.81;nan;95101.69;5049528;28;20039;-79
2022/09/26 03:56:13;;;;;;;14.88;7.60;;;;;;;13.87;nan;95104.00;5046808;28;20028;-79
2022/09/26 03:58:39;;;;;;;14.43;7.32;;;;;;;13.91;nan;95085.50;5048247;28;20040;-79
2022/09/26 04:01:11;;;;;;;9.88;6.97;;;;;;;13.78;nan;95083.63;5064705;28;20044;-80
2022/09/26 04:03:38;;;;;;;19.50;7.82;;;;;;;13.64;nan;95034.88;5031528;28;20037;-82
2022/09/26 04:06:07;;;;;;;13.57;7.47;;;;;;;14.01;nan;95088.00;5045460;28;20048;-78
2022/09/26 04:08:33;;;;;;;9.45;6.85;;;;;;;13.44;nan;95028.81;5030892;28;20125;-79
2022/09/26 04:11:01;;;;;;;10.80;6.68;;;;;;;14.03;nan;95098.38;5032476;28;20507;-79
2022/09/26 04:13:26;;;;;;;13.88;7.65;;;;;;;13.52;nan;95056.66;5044643;28;20033;-79
2022/09/26 04:15:56;;;;;;;18.30;8.05;;;;;;;13.28;nan;94995.56;5033193;28;20043;-78
2022/09/26 04:18:25;;;;;;;10.82;7.38;;;;;;;13.20;nan;94996.25;5044028;28;20033;-78
2022/09/26 04:20:59;;;;;;;13.68;7.28;;;;;;;13.31;nan;94994.97;5034556;28;20479;-78
2022/09/26 04:23:33;;;;;;;15.05;7.78;;;;;;;13.99;nan;95097.38;5043926;28;20036;-79
2022/09/26 04:26:06;;;;;;;16.13;8.18;;;;;;;14.04;nan;95098.03;5038932;28;20029;-78
2022/09/26 04:28:32;;;;;;;13.73;6.72;;;;;;;14.06;nan;95119.88;5019238;28;20521;-83
2022/09/26 04:30:59;;;;;;;13.07;7.53;;;;;;;13.64;nan;95043.66;5041309;28;20072;-77
2022/09/26 04:33:25;;;;;;;16.45;7.50;;;;;;;13.56;nan;95033.69;5028530;28;20036;-79
2022/09/26 04:35:50;;;;;;;13.23;7.82;;;;;;;13.95;nan;95083.84;5034191;28;20028;-78
2022/09/26 04:38:17;;;;;;;20.20;7.72;;;;;;;14.19;nan;95112.94;5033051;28;20719;-79
2022/09/26 04:40:43;;;;;;;11.32;7.70;;;;;;;13.58;nan;95060.03;5036641;28;20029;-77
2022/09/26 04:43:09;;;;;;;14.90;7.07;;;;;;;13.71;nan;95037.94;5032214;28;20071;-78
2022/09/26 04:45:34;;;;;;;18.85;7.65;;;;;;;14.06;nan;95087.09;5030263;28;20430;-78
2022/09/26 04:48:00;;;;;;;13.88;6.85;;;;;;;14.26;nan;95103.50;5031658;28;20045;-78
2022/09/26 04:50:26;;;;;;;17.10;8.15;;;;;;;13.94;nan;95042.28;5036678;28;20029;-78
2022/09/26 04:52:51;;;;;;;12.48;6.30;;;;;;;13.90;nan;95035.94;5032831;28;20043;-78
2022/09/26 04:55:17;;;;;;;15.60;7.50;;;;;;;14.27;nan;95102.38;5036786;28;20489;-78
2022/09/26 04:57:42;;;;;;;13.70;7.90;;;;;;;14.00;nan;95051.75;5035237;28;20040;-78
2022/09/26 05:00:10;;;;;;;12.52;7.22;;;;;;;14.13;nan;95072.28;5035028;28;20554;-78
2022/09/26 05:02:35;;;;;;;13.35;7.30;;;;;;;13.82;nan;95031.31;5030639;28;20124;-78
2022/09/26 05:05:01;;;;;;;23.00;8.02;;;;;;;14.31;nan;95107.94;5023500;28;20045;-81
2022/09/26 05:07:30;;;;;;;15.95;8.07;;;;;;;13.86;nan;95033.09;5030364;28;20491;-81
2022/09/26 05:09:55;;;;;;;21.77;9.57;;;;;;;14.03;nan;95053.84;5033354;28;20345;-79
2022/09/26 05:12:21;;;;;;;14.45;7.78;;;;;;;14.38;nan;95097.66;5035936;28;20108;-83
2022/09/26 05:14:46;;;;;;;19.95;8.10;;;;;;;12.74;nan;94837.34;5030130;28;20033;-84
2022/09/26 05:17:19;;;;;;;12.95;7.95;;;;;;;13.99;nan;95030.72;5037739;28;20048;-84
2022/09/26 05:19:45;;;;;;;16.25;8.48;;;;;;;13.68;nan;94983.34;5031704;28;20064;-80
2022/09/26 05:22:10;;;;;;;25.02;9.77;;;;;;;13.91;nan;95014.31;5027438;28;20031;-82
2022/09/26 05:27:20;;;;;;;26.65;9.98;;;;;;;14.20;nan;95045.19;5032229;28;20051;-82
2022/09/26 05:29:45;;;;;;;19.55;9.52;;;;;;;14.02;nan;95017.59;5035574;28;20033;-82
2022/09/26 05:32:12;;;;;;;25.80;9.48;;;;;;;14.05;nan;95021.50;5031270;28;20094;-82
2022/09/26 05:34:38;;;;;;;22.30;9.38;;;;;;;13.98;nan;95003.25;5031674;28;20029;-82
2022/09/26 05:37:04;;;;;;;20.75;10.55;;;;;;;14.03;nan;95002.38;5034567;28;20032;-82
2022/09/26 05:42:14;;;;;;;24.38;11.07;;;;;;;13.87;nan;94930.72;5034798;28;20631;-81
2022/09/26 05:44:39;;;;;;;30.88;10.70;;;;;;;14.41;nan;94995.69;5028257;28;20937;-82
2022/09/26 05:47:06;;;;;;;28.15;12.10;;;;;;;14.61;nan;95021.91;5032739;28;20129;-80
2022/09/26 05:49:32;;;;;;;29.30;11.70;;;;;;;14.64;nan;95017.84;5031024;28;20059;-81
2022/09/26 05:51:58;;;;;;;26.75;11.50;;;;;;;14.61;nan;95027.25;5032493;28;20029;-80
2022/09/26 05:54:23;;;;;;;29.35;12.20;;;;;;;14.71;nan;95038.78;5030366;28;20045;-81
2022/09/26 05:56:49;;;;;;;30.05;12.27;;;;;;;14.23;nan;94960.06;5033288;28;20043;-81
2022/09/26 05:59:14;;;;;;;22.73;12.23;;;;;;;14.93;nan;95078.84;5035099;28;20047;-81
2022/09/26 06:01:40;;;;;;;25.48;11.75;;;;;;;14.06;nan;94935.88;5031993;28;20358;-82
2022/09/26 06:04:05;;;;;;;35.47;13.05;;;;;;;15.06;nan;95083.34;5027346;28;20562;-83
2022/09/26 06:06:31;;;;;;;36.33;12.43;;;;;;;15.03;nan;95073.25;5044200;28;20047;-82
2022/09/26 06:08:56;;;;;;;39.03;12.75;;;;;;;14.19;nan;94947.59;5024828;28;20048;-84
2022/09/26 06:11:24;;;;;;;38.00;14.43;;;;;;;14.91;nan;95065.78;5030415;28;20488;-79
2022/09/26 06:13:50;;;;;;;29.52;13.82;;;;;;;14.89;nan;95056.50;5034743;28;20028;-82
2022/09/26 06:16:18;;;;;;;37.03;14.88;;;;;;;14.82;nan;95056.13;5037286;28;20047;-80
2022/09/26 06:18:44;;;;;;;43.83;14.80;;;;;;;14.50;nan;94998.41;5034880;28;20491;-81
2022/09/26 06:21:12;;;;;;;40.53;14.07;;;;;;;14.71;nan;95018.22;5036483;28;20097;-80
2022/09/26 06:23:40;;;;;;;36.97;15.05;;;;;;;14.74;nan;94998.91;5041097;28;20048;-80
2022/09/26 06:26:08;;;;;;;41.33;12.15;;;;;;;15.04;nan;95038.22;5036920;28;20044;-83
2022/09/26 06:28:35;;;;;;;45.53;14.73;;;;;;;15.28;nan;95061.94;5034472;28;20081;-81
2022/09/26 06:31:11;;;;;;;35.50;14.50;;;;;;;14.87;nan;95000.75;5041443;28;20046;-80
2022/09/26 06:33:36;;;;;;;32.80;13.60;;;;;;;15.38;nan;95064.38;5029775;28;20033;-82
2022/09/26 06:36:05;;;;;;;34.90;14.18;;;;;;;15.51;nan;95077.94;5037286;28;20725;-80
2022/09/26 06:38:30;;;;;;;29.45;13.40;;;;;;;14.59;nan;94969.91;5034619;28;20475;-81
2022/09/26 06:40:56;;;;;;;39.42;13.82;;;;;;;15.32;nan;95067.50;5035152;28;20071;-81
2022/09/26 06:43:21;;;;;;;34.65;13.95;;;;;;;15.16;nan;95029.69;5033081;28;20033;-82
2022/09/26 06:45:52;;;;;;;23.35;12.75;;;;;;;15.03;nan;94987.78;5037186;28;20418;-81
2022/09/26 06:48:18;;;;;;;29.20;12.98;;;;;;;15.57;nan;95068.72;5031404;28;20482;-81
2022/09/26 06:50:47;;;;;;;22.27;12.55;;;;;;;14.79;nan;94950.75;5038198;28;20262;-84
2022/09/26 06:53:12;;;;;;;23.75;11.60;;;;;;;14.27;nan;94899.66;5027870;28;20044;-83
2022/09/26 06:55:38;;;;;;;22.63;10.82;;;;;;;14.63;nan;94946.88;5025479;28;20044;-79
2022/09/26 06:58:03;;;;;;;19.67;11.57;;;;;;;15.51;nan;95065.38;5038021;28;20115;-82
2022/09/26 07:00:34;;;;;;;26.25;11.90;;;;;;;14.28;nan;94873.78;5031365;28;20041;-83
2022/09/26 07:03:00;;;;;;;19.30;9.23;;;;;;;14.82;nan;94949.34;5040629;28;20035;-82
2022/09/26 07:05:26;;;;;;;24.05;10.77;;;;;;;15.36;nan;95026.47;5036559;28;20048;-84
2022/09/26 07:07:52;;;;;;;23.10;9.20;;;;;;;14.36;nan;94856.25;5028869;28;20029;-85
2022/09/26 07:10:18;;;;;;;17.33;7.40;;;;;;;15.63;nan;95084.34;5035434;28;20035;-83
2022/09/26 07:12:46;;;;;;;27.20;6.35;;;;;;;15.56;nan;95051.16;5022067;28;20044;-81
2022/09/26 07:15:17;;;;;;;15.70;6.05;;;;;;;15.25;nan;95000.34;5032608;28;20025;-81
2022/09/26 07:17:43;;;;;;;16.35;6.85;;;;;;;14.70;nan;94925.91;5031521;28;20386;-82
2022/09/26 07:20:11;;;;;;;11.27;6.00;;;;;;;15.57;nan;95036.66;5043747;28;20037;-82
2022/09/26 07:22:37;;;;;;;13.77;6.28;;;;;;;15.80;nan;95086.31;5037010;28;20048;-82
2022/09/26 07:25:03;;;;;;;19.23;6.10;;;;;;;14.97;nan;94930.28;5030722;28;20033;-80
2022/09/26 07:27:28;;;;;;;14.05;6.03;;;;;;;15.72;nan;95054.97;5039611;28;20858;-81
2022/09/26 07:29:55;;;;;;;19.95;6.30;;;;;;;15.91;nan;95076.94;5035992;28;20040;-81
2022/09/26 07:32:21;;;;;;;14.43;6.15;;;;;;;16.01;nan;95052.59;5035268;28;20060;-80
2022/09/26 07:34:46;;;;;;;13.45;6.90;;;;;;;16.24;nan;95080.03;5027645;28;20029;-82
2022/09/26 07:37:13;;;;;;;17.55;7.28;;;;;;;16.39;nan;95081.47;5028803;28;20128;-80
2022/09/26 07:39:38;;;;;;;14.05;6.43;;;;;;;16.45;nan;95086.38;5025633;28;20032;-81
2022/09/26 07:42:04;;;;;;;22.30;6.93;;;;;;;16.48;nan;95082.25;5028784;28;20057;-83
2022/09/26 07:44:29;;;;;;;12.65;7.30;;;;;;;16.14;nan;95014.22;5035042;28;20315;-80
2022/09/26 07:52:23;;;;;;;13.40;8.57;;;;;;;16.12;nan;95019.06;5033898;28;20110;-82
2022/09/26 07:54:49;;;;;;;23.98;10.00;;;;;;;15.51;nan;94904.22;5034910;28;20480;-87
2022/09/26 07:57:14;;;;;;;17.58;9.38;;;;;;;16.50;nan;95053.28;5033757;28;20063;-82
2022/09/26 07:59:40;;;;;;;18.27;9.25;;;;;;;16.53;nan;95061.50;5032988;28;20136;-81
2022/09/26 08:02:05;;;;;;;18.80;9.18;;;;;;;16.53;nan;95050.00;5022830;28;20624;-80
2022/09/26 08:04:31;;;;;;;16.55;8.63;;;;;;;15.49;nan;94893.84;5028578;28;20102;-84
2022/09/26 08:06:58;;;;;;;15.20;8.57;;;;;;;16.48;nan;95028.72;5031409;28;20039;-81
2022/09/26 08:09:24;;;;;;;17.88;8.75;;;;;;;16.55;nan;95035.19;5034469;28;20494;-80
2022/09/26 08:11:49;;;;;;;15.85;7.82;;;;;;;16.20;nan;94996.13;5030418;28;20032;-80
2022/09/26 08:14:15;;;;;;;14.80;7.70;;;;;;;16.10;nan;94978.47;5026858;28;20033;-82
2022/09/26 08:16:40;;;;;;;14.52;7.40;;;;;;;16.56;nan;95011.88;5025907;28;20044;-81
2022/09/26 08:19:07;;;;;;;26.08;6.78;;;;;;;16.20;nan;94948.75;5033539;28;20055;-81
2022/09/26 08:21:34;;;;;;;11.63;5.53;;;;;;;16.39;nan;94971.75;5031139;28;20485;-81
2022/09/26 08:24:01;;;;;;;10.02;6.05;;;;;;;16.74;nan;95020.75;5030738;28;20040;-80
2022/09/26 08:26:27;;;;;;;11.73;5.68;;;;;;;16.06;nan;94899.97;5032956;28;20025;-81
2022/09/26 08:28:53;;;;;;;11.88;6.00;;;;;;;16.50;nan;94951.56;5031888;28;20039;-81
2022/09/26 08:31:19;;;;;;;18.15;6.20;;;;;;;16.56;nan;94937.72;5031574;28;20036;-81
2022/09/26 08:33:44;;;;;;;9.55;5.60;;;;;;;16.65;nan;94934.28;5032916;28;20420;-81
2022/09/26 08:36:12;;;;;;;11.00;6.13;;;;;;;17.05;nan;94988.41;5036725;28;20061;-83
2022/09/26 08:38:38;;;;;;;14.60;5.72;;;;;;;17.12;nan;94984.13;5033041;28;20041;-80
2022/09/26 08:41:38;;;;;;;20.20;5.68;;;;;;;17.09;nan;94989.38;5031874;28;20152;-82
2022/09/26 08:44:40;;;;;;;19.15;6.07;;;;;;;16.89;nan;94967.47;5027384;28;20042;-86
2022/09/26 08:47:38;;;;;;;15.38;6.40;;;;;;;17.19;nan;95000.50;5032888;28;20025;-84
2022/09/26 08:50:31;;;;;;;16.42;6.72;;;;;;;17.33;nan;94987.69;5030788;28;20044;-81
2022/09/26 08:53:03;;;;;;;13.52;5.85;;;;;;;17.32;nan;94996.84;5026005;28;20427;-80
2022/09/26 08:55:34;;;;;;;19.08;7.63;;;;;;;17.20;nan;94969.94;5036921;28;20052;-81
2022/09/26 08:58:22;;;;;;;18.88;6.18;;;;;;;17.15;nan;94919.19;5042025;28;20028;-81
2022/09/26 09:00:53;;;;;;;14.57;6.72;;;;;;;17.27;nan;94938.06;5031841;28;20035;-82
2022/09/26 09:03:26;;;;;;;18.58;6.85;;;;;;;17.69;nan;94992.66;5030600;28;20032;-80
2022/09/26 09:06:01;;;;;;;13.40;6.97;;;;;;;17.80;nan;94993.06;5040998;28;20029;-80
2022/09/26 09:08:50;;;;;;;24.30;8.10;;;;;;;17.83;nan;94984.38;5031474;28;20033;-81
2022/09/26 09:11:39;;;;;;;17.20;7.07;;;;;;;18.04;nan;94977.16;5030877;28;20033;-81
2022/09/26 09:14:36;;;;;;;19.30;8.52;;;;;;;18.26;nan;94977.97;5045004;28;20040;-81
2022/09/26 09:17:16;;;;;;;15.02;6.68;;;;;;;17.98;nan;94915.97;5028560;28;20044;-85
2022/09/26 09:19:54;;;;;;;16.52;5.18;;;;;;;18.01;nan;94902.66;5034302;28;20029;-82
2022/09/26 09:22:32;;;;;;;9.43;5.15;;;;;;;18.40;nan;94952.44;5032838;28;20040;-81
2022/09/26 09:25:11;;;;;;;14.88;5.05;;;;;;;18.16;nan;94906.66;5033923;28;20049;-81
2022/09/26 09:27:58;;;;;;;15.32;4.97;;;;;;;18.68;nan;94960.78;5023933;28;20040;-80
2022/09/26 09:30:54;;;;;;;13.82;4.65;;;;;;;19.00;nan;94964.56;5027735;28;20090;-81
2022/09/26 09:33:32;;;;;;;14.10;4.97;;;;;;;18.74;nan;94904.94;5025518;28;20837;-81
2022/09/26 09:36:06;;;;;;;14.80;4.85;;;;;;;18.99;nan;94903.91;5010149;28;20680;-80
2022/09/26 09:38:35;;;;;;;10.68;4.55;;;;;;;19.49;nan;94937.81;5023103;28;20040;-80
2022/09/26 09:41:27;;;;;;;19.63;5.10;;;;;;;19.72;nan;94940.84;5042185;28;21667;-80
2022/09/26 09:43:56;;;;;;;13.38;4.40;;;;;;;19.19;nan;94841.22;5037775;28;20037;-84
2022/09/26 09:46:28;;;;;;;19.90;4.70;;;;;;;20.06;nan;94940.41;5035749;28;20821;-82
2022/09/26 09:48:59;;;;;;;10.52;4.63;;;;;;;20.10;nan;94922.44;5029702;28;21169;-81
2022/09/26 09:51:45;;;;;;;9.27;4.40;;;;;;;19.66;nan;94811.19;5033305;28;20071;-81
2022/09/26 09:54:19;;;;;;;16.63;4.28;;;;;;;20.78;nan;94936.72;5033496;28;20040;-79
2022/09/26 09:56:53;;;;;;;7.22;4.53;;;;;;;21.55;nan;94931.81;5029552;28;20044;-81
2022/09/26 09:59:18;;;;;;;19.52;4.00;;;;;;;22.62;nan;94924.19;5025552;28;20603;-81
2022/09/26 10:01:49;;;;;;;10.52;4.53;;;;;;;23.45;nan;94916.47;5049469;28;20029;-82
2022/09/26 10:04:43;;;;;;;7.75;3.20;;;;;;;24.29;nan;94905.44;5036602;28;20511;-80
2022/09/26 10:07:09;;;;;;;12.57;3.85;;;;;;;25.21;nan;94901.09;5036815;28;20071;-84
2022/09/26 10:09:38;;;;;;;15.70;5.45;;;;;;;26.11;nan;94897.97;5034784;28;20041;-79
2022/09/26 10:12:15;;;;;;;8.80;3.47;;;;;;;26.89;nan;94890.97;5038927;28;20100;-79
2022/09/26 10:14:53;;;;;;;6.07;3.30;;;;;;;27.85;nan;94898.53;5026810;28;20155;-80
2022/09/26 10:17:21;;;;;;;11.15;3.35;;;;;;;28.26;nan;94852.53;5043170;28;20036;-81
2022/09/26 10:19:54;;;;;;;9.10;3.20;;;;;;;28.57;nan;94850.88;5023376;28;20296;-83
2022/09/26 10:22:36;;;;;;;13.15;3.50;;;;;;;28.81;nan;94855.47;5023146;28;20052;-77
2022/09/26 10:25:21;;;;;;;10.38;3.83;;;;;;;28.98;nan;94895.56;5015704;28;20094;-78
2022/09/26 10:27:50;;;;;;;10.48;2.83;;;;;;;29.01;nan;94907.63;5014102;28;20106;-79
2022/09/26 10:30:19;;;;;;;8.55;2.38;;;;;;;28.76;nan;94894.84;5020902;28;20045;-77
2022/09/26 10:32:47;;;;;;;9.10;2.80;;;;;;;28.24;nan;94841.25;5033244;28;20103;-77
2022/09/26 10:35:17;;;;;;;12.82;2.90;;;;;;;28.71;nan;94889.78;5033390;28;20040;-79
2022/09/26 10:38:17;;;;;;;10.57;2.90;;;;;;;29.05;nan;94892.00;5042469;28;20503;-78
2022/09/26 10:40:51;;;;;;;4.78;2.30;;;;;;;28.82;nan;94846.13;5029707;28;20048;-78
2022/09/26 10:43:23;;;;;;;8.40;3.05;;;;;;;28.88;nan;94863.63;5032806;28;20032;-78
2022/09/26 10:45:58;;;;;;;5.68;2.50;;;;;;;28.68;nan;94846.16;5033090;28;20063;-77
2022/09/26 10:48:44;;;;;;;12.05;2.65;;;;;;;28.69;nan;94869.53;5035523;28;20048;-78
2022/09/26 10:51:26;;;;;;;8.27;2.58;;;;;;;27.54;nan;94774.81;5016626;28;20044;-78
2022/09/26 10:53:57;;;;;;;5.72;2.40;;;;;;;27.64;nan;94779.47;5030000;28;20029;-77
2022/09/26 10:56:34;;;;;;;7.72;2.28;;;;;;;27.85;nan;94816.78;5029488;28;20033;-79
2022/09/26 10:59:07;;;;;;;6.20;2.70;;;;;;;27.80;nan;94815.25;5044552;28;20041;-79
2022/09/26 11:01:41;;;;;;;6.88;2.25;;;;;;;27.72;nan;94810.19;5034221;28;20035;-79
2022/09/26 11:07:23;;;;;;;;;;;;;;;27.91;nan;94831.59;5037658;28;20064;-78
2022/09/26 11:09:51;;;;;;;7.15;2.45;;;;;;;27.68;nan;94834.72;5032776;28;19928;-77
2022/09/26 11:12:24;;;;;;;5.53;3.10;;;;;;;27.61;nan;94813.72;5028804;28;20270;-80
2022/09/26 11:14:57;;;;;;;11.63;2.88;;;;;;;27.32;nan;94786.84;5031576;28;20126;-83
2022/09/26 11:17:46;;;;;;;5.07;2.85;;;;;;;27.62;nan;94826.16;5032047;28;20033;-79
2022/09/26 11:21:00;;;;;;;6.40;3.10;;;;;;;27.62;nan;94826.16;5027695;28;20080;-79
2022/09/26 11:23:37;;;;;;;11.45;2.83;;;;;;;27.39;nan;94831.19;5032127;28;20426;-80
2022/09/26 11:27:21;;;;;;;10.07;2.85;;;;;;;27.69;30.25;94828.13;5133566;27;20191;-79
2022/09/26 11:30:09;;;;;;;5.60;3.10;;;;;;;27.84;30.32;94816.03;5110071;27;20046;-79
2022/09/26 11:32:39;;;;;;;5.97;3.42;;;;;;;27.36;29.47;94752.25;5132212;27;20034;-78
2022/09/26 11:35:13;;;;;;;8.00;3.00;;;;;;;27.85;29.41;94790.31;5133837;27;20245;-78
2022/09/26 11:38:04;;;;;;;8.98;2.65;;;;;;;27.97;28.47;94802.75;5114448;27;20027;-78
2022/09/26 11:40:38;;;;;;;10.05;2.53;;;;;;;27.97;28.95;94800.81;5112735;27;20027;-78
2022/09/26 11:43:24;;;;;;;6.72;2.55;;;;;;;27.52;29.61;94767.00;5117029;27;20692;-78
2022/09/26 11:46:16;;;;;;;8.98;2.50;;;;;;;27.87;29.72;94793.41;5121119;27;20030;-79
2022/09/26 11:49:00;;;;;;;3.90;2.30;;;;;;;28.06;28.77;94756.00;5117615;27;20038;-78
2022/09/26 11:51:49;;;;;;;5.05;2.17;;;;;;;28.04;28.43;94781.69;5138116;27;20083;-79
2022/09/26 11:54:32;;;;;;;4.80;2.55;;;;;;;27.54;28.95;94707.47;5133179;27;20557;-78
2022/09/26 11:57:32;;;;;;;8.32;2.90;;;;;;;27.81;28.93;94753.34;5118400;27;20030;-78
2022/09/26 12:00:06;;;;;;;4.82;3.17;;;;;;;28.25;28.71;94769.97;5106906;27;20043;-78
2022/09/26 12:03:22;;;;;;;6.75;2.53;;;;;;;27.72;29.34;94763.88;5123324;27;20042;-79
2022/09/26 12:06:33;;;;;;;6.05;2.58;;;;;;;27.85;29.18;94751.38;5013634;28;20033;-82
2022/09/26 12:09:30;;;;;;;5.70;2.25;;;;;;;28.06;28.86;94758.72;4992709;28;20129;-83
2022/09/26 12:12:02;;;;;;;5.35;1.98;;;;;;;27.85;29.24;94759.56;5111351;27;20635;-79
2022/09/26 12:14:40;;;;;;;5.00;2.47;;;;;;;27.80;29.35;94735.44;5133502;27;20034;-79
2022/09/26 12:17:19;;;;;;;5.72;1.70;;;;;;;27.45;30.45;94752.63;5111822;27;20121;-79
2022/09/26 12:19:56;;;;;;;6.03;2.40;;;;;;;26.88;30.30;94756.09;5120224;27;20035;-80
2022/09/26 12:22:30;;;;;;;12.45;2.65;;;;;;;26.55;30.66;94753.69;5133307;27;20563;-78